Ct Longford — 9HYM9 — position and weather

sailwx.info

Track history (hours):
 
Tides and Currents Weather Stations Pressure Air Temp Water Temp Dewpoint Dewpoint Depression Visibility Wind Speed Wind Dir Waves Ship Positions

Ct Longford

Last reported at 2017-Feb-22 14:30 UTC. Time now 2017-Feb-25 09:14 UTC.
Position N 35°56' E 014°54'.

Length 117 m; draft 5.8 m.

Type: Tanker. MMSI: 249706000.

Date/timePositionNaut miles runAvg speedWind from/ knotsBaromVisibWave heightAir tempDewpointWater temp
2017-Feb-22 14:30N 35°56' E 014°54'7 7.6
2017-Feb-22 13:34N 35°55' E 014°46'0 0.5
2017-Feb-22 12:32N 35°55' E 014°45'0 0.0
2017-Feb-22 11:29N 35°55' E 014°45'0 0.0
2017-Feb-22 10:32N 35°55' E 014°45'1 1.4
2017-Feb-22 09:33N 35°55' E 014°47'2 0.1
2017-Feb-21 16:13N 35°56' E 014°49'0 0.0
2017-Feb-20 21:10N 35°56' E 014°49'0 0.0
2017-Feb-20 04:33N 35°56' E 014°48'5 5.3
2017-Feb-20 03:33N 35°58' E 014°42'6 6.0
2017-Feb-20 02:33N 36°01' E 014°35'6 6.4
2017-Feb-20 01:33N 36°03' E 014°28'7 6.7
2017-Feb-20 00:33N 36°06' E 014°21'7 6.6
2017-Feb-19 23:33N 36°09' E 014°14'7 6.6
2017-Feb-19 22:33N 36°13' E 014°06'6 6.1
2017-Feb-19 21:33N 36°15' E 013°60'6 5.8
2017-Feb-19 20:33N 36°18' E 013°53'6 5.7
2017-Feb-19 19:33N 36°20' E 013°47'  
2017-Feb-14 17:33N 35°59' W 005°13'1211.6
2017-Feb-14 16:33N 35°57' W 005°27'10 9.7
2017-Feb-14 15:30N 35°55' W 005°40'  
Track history (hours):
 
Tides and Currents Weather Stations Pressure Air Temp Water Temp Dewpoint Dewpoint Depression Visibility Wind Speed Wind Dir Waves Ship Positions

Ct Longford

Last reported at 2017-Feb-22 14:30 UTC. Time now 2017-Feb-25 09:14 UTC.
Position N 35°56' E 014°54'.

Length 117 m; draft 5.8 m.

Type: Tanker. MMSI: 249706000.

Date/timePositionNaut miles runAvg speedWind from/ knotsBaromVisibWave heightAir tempDewpointWater temp
2017-Feb-22 14:30N 35°56' E 014°54'7 7.6
2017-Feb-22 13:34N 35°55' E 014°46'0 0.5
2017-Feb-22 12:32N 35°55' E 014°45'0 0.0
2017-Feb-22 11:29N 35°55' E 014°45'0 0.0
2017-Feb-22 10:32N 35°55' E 014°45'1 1.4
2017-Feb-22 09:33N 35°55' E 014°47'2 0.1
2017-Feb-21 16:13N 35°56' E 014°49'0 0.0
2017-Feb-20 21:10N 35°56' E 014°49'0 0.0
2017-Feb-20 04:33N 35°56' E 014°48'5 5.3
2017-Feb-20 03:33N 35°58' E 014°42'6 6.0
2017-Feb-20 02:33N 36°01' E 014°35'6 6.4
2017-Feb-20 01:33N 36°03' E 014°28'7 6.7
2017-Feb-20 00:33N 36°06' E 014°21'7 6.6
2017-Feb-19 23:33N 36°09' E 014°14'7 6.6
2017-Feb-19 22:33N 36°13' E 014°06'6 6.1
2017-Feb-19 21:33N 36°15' E 013°60'6 5.8
2017-Feb-19 20:33N 36°18' E 013°53'6 5.7
2017-Feb-19 19:33N 36°20' E 013°47'  
2017-Feb-14 17:33N 35°59' W 005°13'1211.6
2017-Feb-14 16:33N 35°57' W 005°27'10 9.7
2017-Feb-14 15:30N 35°55' W 005°40'  

Dump ship's entire track history